Time;durP1;ratioP1;P1;durP2;ratioP2;P2;SDS_P1;SDS_P2;PMS_P1;PMS_P2;Temp;Humidity;BMP_temperature;BMP_pressure;BME280_temperature;BME280_humidity;BME280_pressure;Samples;Min_cycle;Max_cycle;Signal;HPM_P1;HPM_P2
2023/04/28 00:00:53;;;;;;;7.50;5.05;;;12.00;77.20;;;;;;5023248;28;20469;-85
2023/04/28 00:03:19;;;;;;;8.75;5.10;;;12.00;77.20;;;;;;5006944;28;20034;-84
2023/04/28 00:05:45;;;;;;;7.35;4.53;;;11.90;77.10;;;;;;4990802;28;20021;-84
2023/04/28 00:08:11;;;;;;;8.43;4.85;;;11.90;76.90;;;;;;5033263;28;20026;-83
2023/04/28 00:10:37;;;;;;;7.07;4.65;;;11.90;76.90;;;;;;5030262;28;20119;-85
2023/04/28 00:13:02;;;;;;;7.35;4.18;;;11.90;76.90;;;;;;5013902;28;20021;-85
2023/04/28 00:15:28;;;;;;;7.65;4.45;;;11.90;77.00;;;;;;4998712;28;20033;-84
2023/04/28 00:17:54;;;;;;;7.93;4.22;;;11.80;76.90;;;;;;5006854;28;20057;-85
2023/04/28 00:20:20;;;;;;;6.43;4.80;;;11.80;76.80;;;;;;5006415;28;20037;-85
2023/04/28 00:22:45;;;;;;;8.63;4.68;;;11.80;76.50;;;;;;5006152;28;20410;-85
2023/04/28 00:25:11;;;;;;;10.57;5.47;;;11.70;76.50;;;;;;4990337;28;20037;-84
2023/04/28 00:27:37;;;;;;;8.48;4.78;;;11.70;77.20;;;;;;5022666;28;20028;-84
2023/04/28 00:30:03;;;;;;;8.73;4.35;;;11.70;77.20;;;;;;5023029;28;20389;-85
2023/04/28 00:32:29;;;;;;;8.38;4.78;;;11.70;77.20;;;;;;5004039;28;20028;-85
2023/04/28 00:34:56;;;;;;;7.60;4.20;;;11.70;77.40;;;;;;5019687;28;20458;-85
2023/04/28 00:37:21;;;;;;;9.88;4.68;;;11.70;77.70;;;;;;5037159;28;20026;-84
2023/04/28 00:39:47;;;;;;;11.13;6.20;;;11.60;77.50;;;;;;5036864;28;20488;-84
2023/04/28 00:42:14;;;;;;;8.85;4.60;;;11.60;77.80;;;;;;5003243;28;20029;-84
2023/04/28 00:44:40;;;;;;;10.55;4.70;;;11.60;78.00;;;;;;5036870;28;20101;-84
2023/04/28 00:47:07;;;;;;;12.40;4.55;;;11.60;78.10;;;;;;5019361;28;20184;-84
2023/04/28 00:49:33;;;;;;;11.77;4.70;;;11.60;78.80;;;;;;5002660;28;20108;-85
2023/04/28 00:52:03;;;;;;;7.40;4.15;;;11.60;77.60;;;;;;5036727;28;20021;-84
2023/04/28 00:54:29;;;;;;;10.25;4.43;;;11.60;77.90;;;;;;5003154;28;20490;-85
2023/04/28 00:56:56;;;;;;;8.10;4.40;;;11.50;77.60;;;;;;5018692;28;20465;-85
2023/04/28 00:59:22;;;;;;;7.97;4.25;;;11.50;77.70;;;;;;5019107;28;20112;-84
2023/04/28 01:01:48;;;;;;;7.65;4.55;;;11.50;78.00;;;;;;5002527;28;20052;-86
2023/04/28 01:04:18;;;;;;;8.57;4.63;;;11.50;78.20;;;;;;5002776;28;20056;-85
2023/04/28 01:06:44;;;;;;;5.90;4.03;;;11.50;77.80;;;;;;5019183;28;20026;-85
2023/04/28 01:09:10;;;;;;;6.35;3.97;;;11.50;78.50;;;;;;5019243;28;20025;-85
2023/04/28 01:11:36;;;;;;;7.60;3.78;;;11.50;78.10;;;;;;5002604;28;20032;-85
2023/04/28 01:14:02;;;;;;;7.40;3.90;;;11.50;77.90;;;;;;5003388;28;20036;-84
2023/04/28 01:16:29;;;;;;;9.45;4.40;;;11.40;78.00;;;;;;5019137;28;20026;-85
2023/04/28 01:18:54;;;;;;;10.85;4.90;;;11.40;78.20;;;;;;5018648;28;20040;-84
2023/04/28 01:21:31;;;;;;;8.15;5.20;;;11.40;78.30;;;;;;5018902;28;20462;-85
2023/04/28 01:23:57;;;;;;;10.82;5.20;;;11.40;80.00;;;;;;5002987;28;20040;-85
2023/04/28 01:26:23;;;;;;;9.85;5.47;;;11.40;81.20;;;;;;5003108;28;20100;-85
2023/04/28 01:28:49;;;;;;;8.82;5.03;;;11.30;82.40;;;;;;5036561;28;20026;-85
2023/04/28 01:31:15;;;;;;;9.27;5.85;;;11.30;83.10;;;;;;5036381;28;20026;-85
2023/04/28 01:33:41;;;;;;;8.23;5.20;;;11.30;84.30;;;;;;4986157;28;20086;-85
2023/04/28 01:36:07;;;;;;;8.43;5.53;;;11.30;85.60;;;;;;5036232;28;20098;-85
2023/04/28 01:38:33;;;;;;;7.95;4.95;;;11.30;86.80;;;;;;5018233;28;20504;-87
2023/04/28 01:40:58;;;;;;;8.35;4.85;;;11.20;87.10;;;;;;5002107;28;20123;-85
2023/04/28 01:43:24;;;;;;;8.05;4.93;;;11.20;87.40;;;;;;5035532;28;20385;-85
2023/04/28 01:45:50;;;;;;;13.00;6.07;;;11.20;88.50;;;;;;5001437;28;20380;-85
2023/04/28 01:48:16;;;;;;;8.35;5.20;;;11.20;88.50;;;;;;5002154;28;20025;-85
2023/04/28 01:50:42;;;;;;;6.72;5.13;;;11.10;88.90;;;;;;5018476;28;20043;-86
2023/04/28 01:53:07;;;;;;;7.57;4.88;;;11.10;90.00;;;;;;5002046;28;20060;-85
2023/04/28 01:55:33;;;;;;;6.50;5.03;;;11.10;90.00;;;;;;5001746;28;20029;-85
2023/04/28 01:57:59;;;;;;;10.13;5.10;;;11.10;90.00;;;;;;5018023;28;20110;-84
2023/04/28 02:00:26;;;;;;;9.90;5.80;;;11.00;90.40;;;;;;5018027;28;20045;-84
2023/04/28 02:02:51;;;;;;;8.98;5.50;;;11.00;90.70;;;;;;5017876;28;20022;-85
2023/04/28 02:05:17;;;;;;;9.65;5.22;;;11.00;91.30;;;;;;5018142;28;20034;-85
2023/04/28 02:07:43;;;;;;;9.13;5.15;;;11.00;91.30;;;;;;5001878;28;20021;-86
2023/04/28 02:10:09;;;;;;;9.40;5.30;;;11.00;91.30;;;;;;5018313;28;20037;-85
2023/04/28 02:12:34;;;;;;;9.02;4.95;;;11.00;91.90;;;;;;5035599;28;20032;-85
2023/04/28 02:15:00;;;;;;;10.60;5.00;;;10.90;92.00;;;;;;5001912;28;20029;-85
2023/04/28 02:17:28;;;;;;;11.25;6.03;;;10.90;92.10;;;;;;5036289;28;20033;-85
2023/04/28 02:19:57;;;;;;;8.65;5.00;;;10.90;92.50;;;;;;5046798;28;20036;-85
2023/04/28 02:22:23;;;;;;;8.35;5.10;;;10.90;92.40;;;;;;5011528;28;20053;-85
2023/04/28 02:24:50;;;;;;;9.95;5.80;;;10.90;92.80;;;;;;5040453;28;20033;-84
2023/04/28 02:27:16;;;;;;;8.30;5.00;;;10.80;92.90;;;;;;5002840;28;20022;-85
2023/04/28 02:29:41;;;;;;;9.52;5.43;;;10.90;93.10;;;;;;5018697;28;20381;-86
2023/04/28 02:32:07;;;;;;;13.27;5.15;;;10.80;92.90;;;;;;4985498;28;20040;-85
2023/04/28 02:34:33;;;;;;;8.00;4.78;;;10.80;93.20;;;;;;5017968;28;20358;-85
2023/04/28 02:36:59;;;;;;;7.65;5.07;;;10.80;93.30;;;;;;5001222;28;20026;-85
2023/04/28 02:39:25;;;;;;;7.68;4.80;;;10.80;93.30;;;;;;5017949;28;20029;-85
2023/04/28 02:41:55;;;;;;;8.10;5.13;;;10.80;93.40;;;;;;5032732;28;20009;-88
2023/04/28 02:44:21;;;;;;;9.25;5.05;;;10.80;93.90;;;;;;5058523;28;20012;-85
2023/04/28 02:46:47;;;;;;;10.45;4.95;;;10.80;93.90;;;;;;5024571;28;20080;-88
2023/04/28 02:49:13;;;;;;;10.38;6.13;;;10.80;93.90;;;;;;5004089;28;20138;-85
2023/04/28 02:51:39;;;;;;;7.90;4.55;;;10.80;93.80;;;;;;5035173;28;20484;-85
2023/04/28 02:54:04;;;;;;;7.70;4.95;;;10.70;93.90;;;;;;5000587;28;20029;-85
2023/04/28 02:56:30;;;;;;;8.75;5.57;;;10.70;94.20;;;;;;5016425;28;20022;-85
2023/04/28 02:58:56;;;;;;;10.85;5.70;;;10.70;94.40;;;;;;5000495;28;20053;-85
2023/04/28 03:01:22;;;;;;;9.15;4.80;;;10.70;94.50;;;;;;5016829;28;20025;-85
2023/04/28 03:03:48;;;;;;;9.27;5.03;;;10.70;94.60;;;;;;5000387;28;20033;-85
2023/04/28 03:06:13;;;;;;;6.50;4.40;;;10.70;94.50;;;;;;5000668;28;20036;-84
2023/04/28 03:08:39;;;;;;;7.47;5.00;;;10.70;94.60;;;;;;5001024;28;20033;-85
2023/04/28 03:11:05;;;;;;;8.63;4.55;;;10.70;94.40;;;;;;5016766;28;20108;-84
2023/04/28 03:13:30;;;;;;;10.85;4.45;;;10.60;94.10;;;;;;4984246;28;20404;-85
2023/04/28 03:15:56;;;;;;;8.55;4.82;;;10.60;93.90;;;;;;5000578;28;20033;-85
2023/04/28 03:18:22;;;;;;;7.95;4.80;;;10.60;94.00;;;;;;5000518;28;20029;-85
2023/04/28 03:20:48;;;;;;;8.52;4.70;;;10.60;94.40;;;;;;5000307;28;20581;-85
2023/04/28 03:23:14;;;;;;;7.60;4.53;;;10.60;94.50;;;;;;4984603;28;20029;-85
2023/04/28 03:25:40;;;;;;;9.98;5.22;;;10.60;94.60;;;;;;4983998;28;20402;-83
2023/04/28 03:28:06;;;;;;;8.40;4.60;;;10.60;94.80;;;;;;5016500;28;20083;-85
2023/04/28 03:30:32;;;;;;;7.15;4.45;;;10.60;94.70;;;;;;5000801;28;20022;-85
2023/04/28 03:32:58;;;;;;;8.05;4.93;;;10.60;94.50;;;;;;5000373;28;20036;-85
2023/04/28 03:35:23;;;;;;;8.25;4.90;;;10.50;94.30;;;;;;5034355;28;20040;-84
2023/04/28 03:37:49;;;;;;;7.88;4.75;;;10.50;94.40;;;;;;4984017;28;20022;-85
2023/04/28 03:40:15;;;;;;;8.63;4.13;;;10.50;94.60;;;;;;5016759;28;20083;-85
2023/04/28 03:42:41;;;;;;;7.80;4.88;;;10.50;94.70;;;;;;5016616;28;20032;-85
2023/04/28 03:45:07;;;;;;;8.30;5.20;;;10.50;94.50;;;;;;4999812;28;20033;-85
2023/04/28 03:47:33;;;;;;;7.80;5.35;;;10.50;94.50;;;;;;5000377;28;20076;-85
2023/04/28 03:49:59;;;;;;;8.75;5.47;;;10.50;94.90;;;;;;5016201;28;20030;-85
2023/04/28 03:52:25;;;;;;;8.00;5.38;;;10.50;95.10;;;;;;4984208;28;20384;-85
2023/04/28 03:54:51;;;;;;;9.98;5.45;;;10.50;95.30;;;;;;5016674;28;20025;-85
2023/04/28 03:57:16;;;;;;;7.85;4.90;;;10.50;95.50;;;;;;5000070;28;20118;-85
2023/04/28 03:59:42;;;;;;;8.68;5.03;;;10.50;95.80;;;;;;4983660;28;20033;-85
2023/04/28 04:02:08;;;;;;;9.05;5.20;;;10.50;95.50;;;;;;5016270;28;20034;-85
2023/04/28 04:04:33;;;;;;;8.60;5.05;;;10.50;95.60;;;;;;5000142;28;20034;-85
2023/04/28 04:07:00;;;;;;;8.68;5.65;;;10.50;95.80;;;;;;4999726;28;20029;-85
2023/04/28 04:09:25;;;;;;;11.32;5.50;;;10.50;95.90;;;;;;5003982;28;20087;-85
2023/04/28 04:11:51;;;;;;;8.50;5.20;;;10.50;96.00;;;;;;5019758;28;20093;-86
2023/04/28 04:14:17;;;;;;;8.18;5.22;;;10.40;96.20;;;;;;5003849;28;20389;-85
2023/04/28 04:16:42;;;;;;;8.07;5.00;;;10.50;96.40;;;;;;5003744;28;20048;-85
2023/04/28 04:19:08;;;;;;;7.70;5.07;;;10.50;96.50;;;;;;5020171;28;20123;-85
2023/04/28 04:21:34;;;;;;;11.00;5.00;;;10.40;96.60;;;;;;5003406;28;20029;-85
2023/04/28 04:24:00;;;;;;;9.15;5.30;;;10.50;96.80;;;;;;4987123;28;20027;-85
2023/04/28 04:26:26;;;;;;;9.00;5.50;;;10.40;96.60;;;;;;5003656;28;20457;-85
2023/04/28 04:28:51;;;;;;;9.88;5.50;;;10.40;96.70;;;;;;4987011;28;20044;-89
2023/04/28 04:31:21;;;;;;;9.15;5.18;;;10.40;97.00;;;;;;5019763;28;20076;-86
2023/04/28 04:33:47;;;;;;;10.55;5.50;;;10.40;97.20;;;;;;5004098;28;20076;-86
2023/04/28 04:36:13;;;;;;;8.60;5.85;;;10.40;97.40;;;;;;5037291;28;20477;-85
2023/04/28 04:38:38;;;;;;;9.52;6.07;;;10.40;97.50;;;;;;5019907;28;20040;-85
2023/04/28 04:41:04;;;;;;;7.88;5.30;;;10.40;97.80;;;;;;5021943;28;20038;-85
2023/04/28 04:43:30;;;;;;;9.05;5.80;;;10.40;97.90;;;;;;5004479;28;20037;-85
2023/04/28 04:45:55;;;;;;;13.10;6.07;;;10.40;98.10;;;;;;4987068;28;20030;-86
2023/04/28 04:48:21;;;;;;;11.27;6.18;;;10.40;98.30;;;;;;4987056;28;20500;-85
2023/04/28 04:50:48;;;;;;;9.75;5.15;;;10.40;98.60;;;;;;4987208;28;20380;-85
2023/04/28 04:53:14;;;;;;;9.57;5.80;;;10.40;98.70;;;;;;5005101;28;20084;-84
2023/04/28 04:55:40;;;;;;;10.85;6.15;;;10.40;98.80;;;;;;4983629;28;20030;-85
2023/04/28 04:58:05;;;;;;;10.48;6.60;;;10.40;98.80;;;;;;4999898;28;20054;-85
2023/04/28 05:00:31;;;;;;;8.85;6.15;;;10.40;98.90;;;;;;4999677;28;20026;-86
2023/04/28 05:02:57;;;;;;;12.82;5.90;;;10.40;99.20;;;;;;5013065;28;20064;-86
2023/04/28 05:05:22;;;;;;;9.48;6.25;;;10.40;99.40;;;;;;4986927;28;20033;-85
2023/04/28 05:07:48;;;;;;;10.80;6.45;;;10.40;99.50;;;;;;4986985;28;20033;-86
2023/04/28 05:10:14;;;;;;;9.88;6.75;;;10.40;99.60;;;;;;5002838;28;20485;-85
2023/04/28 05:12:40;;;;;;;9.90;6.40;;;10.40;99.80;;;;;;4988715;28;20030;-85
2023/04/28 05:15:06;;;;;;;12.38;7.25;;;10.30;99.90;;;;;;5020619;28;20017;-90
2023/04/28 05:17:33;;;;;;;9.55;6.00;;;10.40;99.90;;;;;;5060882;28;20036;-92
2023/04/28 05:19:58;;;;;;;9.45;6.25;;;10.40;99.90;;;;;;5027955;28;20064;-86
2023/04/28 05:22:25;;;;;;;11.45;7.20;;;10.30;99.90;;;;;;5021097;28;20025;-85
2023/04/28 05:24:51;;;;;;;11.45;7.10;;;10.30;99.90;;;;;;5001446;28;20068;-86
2023/04/28 05:27:19;;;;;;;10.38;6.90;;;10.30;99.90;;;;;;4984277;28;20037;-85
2023/04/28 05:29:45;;;;;;;9.18;6.68;;;10.30;99.90;;;;;;4983269;28;20029;-84
2023/04/28 05:32:11;;;;;;;11.98;7.63;;;10.40;99.90;;;;;;4967088;28;20083;-86
2023/04/28 05:34:37;;;;;;;14.43;7.53;;;10.40;99.90;;;;;;4996016;28;20477;-86
2023/04/28 05:37:02;;;;;;;13.45;7.50;;;10.40;99.90;;;;;;5000065;28;20026;-86
2023/04/28 05:39:28;;;;;;;15.15;8.25;;;10.40;99.90;;;;;;5023407;28;20040;-86
2023/04/28 05:41:53;;;;;;;14.98;8.48;;;10.50;99.90;;;;;;5022358;28;20025;-85
2023/04/28 05:44:19;;;;;;;11.15;7.95;;;10.50;99.90;;;;;;5018248;28;20099;-85
2023/04/28 05:46:45;;;;;;;13.07;9.10;;;10.50;99.90;;;;;;5015270;28;20033;-84
2023/04/28 05:49:11;;;;;;;16.60;11.05;;;10.50;99.90;;;;;;4993418;28;20033;-86
2023/04/28 05:51:37;;;;;;;16.17;10.95;;;10.50;99.90;;;;;;4994760;28;20037;-85
2023/04/28 05:54:03;;;;;;;18.58;12.48;;;10.50;99.90;;;;;;5024569;28;20106;-87
2023/04/28 05:56:29;;;;;;;18.15;11.23;;;10.60;99.90;;;;;;5019082;28;20029;-85
2023/04/28 05:58:55;;;;;;;18.00;10.75;;;10.50;99.90;;;;;;5018220;28;20500;-84
2023/04/28 06:01:22;;;;;;;17.80;11.15;;;10.60;99.90;;;;;;5018116;28;20063;-85
2023/04/28 06:03:47;;;;;;;17.40;11.40;;;10.60;99.90;;;;;;5018014;28;20025;-85
2023/04/28 06:06:13;;;;;;;17.80;12.02;;;10.60;99.90;;;;;;5001655;28;20025;-85
2023/04/28 06:08:39;;;;;;;18.85;12.90;;;10.70;99.90;;;;;;5017826;28;20025;-87
2023/04/28 06:11:05;;;;;;;15.90;11.75;;;10.70;99.90;;;;;;5001328;28;20098;-88
2023/04/28 06:13:31;;;;;;;17.95;12.52;;;10.60;99.90;;;;;;5017987;28;20025;-85
2023/04/28 06:15:57;;;;;;;18.02;13.00;;;10.70;99.90;;;;;;5018171;28;20018;-84
2023/04/28 06:18:23;;;;;;;17.75;12.40;;;10.70;99.90;;;;;;5001347;28;20121;-84
2023/04/28 06:20:49;;;;;;;17.30;12.20;;;10.70;99.90;;;;;;5017914;28;20495;-84
2023/04/28 06:23:15;;;;;;;19.23;12.73;;;10.80;99.90;;;;;;5035271;28;20114;-84
2023/04/28 06:25:41;;;;;;;18.05;12.60;;;10.80;99.90;;;;;;5035092;28;20085;-84
2023/04/28 06:28:06;;;;;;;18.20;12.95;;;10.80;99.90;;;;;;5017180;28;20025;-88
2023/04/28 06:30:34;;;;;;;21.77;14.23;;;10.80;99.90;;;;;;4984200;28;20037;-84
2023/04/28 06:33:00;;;;;;;17.63;13.20;;;10.80;99.90;;;;;;5017324;28;20025;-84
2023/04/28 06:35:25;;;;;;;20.50;14.43;;;10.80;99.90;;;;;;5017626;28;20519;-85
2023/04/28 06:37:51;;;;;;;19.95;13.70;;;10.80;99.90;;;;;;5034764;28;20104;-85
2023/04/28 06:40:17;;;;;;;20.52;14.00;;;10.80;99.90;;;;;;5017401;28;20038;-84
2023/04/28 06:42:43;;;;;;;19.30;14.00;;;10.90;99.90;;;;;;5017330;28;20030;-83
2023/04/28 06:45:09;;;;;;;19.80;13.95;;;10.90;99.90;;;;;;4984682;28;20464;-89
2023/04/28 06:47:36;;;;;;;20.27;14.85;;;10.90;99.90;;;;;;5000806;28;20032;-85
2023/04/28 06:50:02;;;;;;;22.00;15.63;;;10.90;99.90;;;;;;5016955;28;20057;-84
2023/04/28 06:52:29;;;;;;;23.38;15.95;;;11.00;99.90;;;;;;5016775;28;20018;-85
2023/04/28 06:54:55;;;;;;;25.27;17.20;;;11.00;99.90;;;;;;5016962;28;20053;-85
2023/04/28 06:57:20;;;;;;;23.27;17.05;;;11.00;99.90;;;;;;5016833;28;20052;-84
2023/04/28 06:59:46;;;;;;;22.33;16.98;;;11.00;99.90;;;;;;5017050;28;20041;-85
2023/04/28 07:02:12;;;;;;;24.92;17.25;;;11.10;99.90;;;;;;5016617;28;20108;-85
2023/04/28 07:04:37;;;;;;;25.05;18.55;;;11.10;99.90;;;;;;5000529;28;20030;-85
2023/04/28 07:07:07;;;;;;;28.75;18.88;;;11.20;99.90;;;;;;5017021;28;20032;-84
2023/04/28 07:09:33;;;;;;;27.35;18.52;;;11.20;99.90;;;;;;5016496;28;20120;-85
2023/04/28 07:11:59;;;;;;;28.67;18.65;;;11.20;99.90;;;;;;5000697;28;20026;-85
2023/04/28 07:14:25;;;;;;;25.48;17.13;;;11.30;99.90;;;;;;5016613;28;20086;-84
2023/04/28 07:16:50;;;;;;;27.63;17.98;;;11.30;99.90;;;;;;5016699;28;20021;-84
2023/04/28 07:19:16;;;;;;;28.38;17.88;;;11.40;99.90;;;;;;4983785;28;20037;-85
2023/04/28 07:21:42;;;;;;;28.13;19.50;;;11.40;99.90;;;;;;4983775;28;20036;-85
2023/04/28 07:24:07;;;;;;;27.13;19.42;;;11.50;99.90;;;;;;5016833;28;20030;-84
2023/04/28 07:26:33;;;;;;;23.80;17.30;;;11.40;99.90;;;;;;5000167;28;20037;-85
2023/04/28 07:28:59;;;;;;;27.60;18.00;;;11.50;99.90;;;;;;5001039;28;20034;-85
2023/04/28 07:31:25;;;;;;;23.65;16.55;;;11.50;99.90;;;;;;5016486;28;20040;-85
2023/04/28 07:33:50;;;;;;;25.10;17.25;;;11.60;99.90;;;;;;5000190;28;20022;-85
2023/04/28 07:36:16;;;;;;;25.58;16.58;;;11.60;99.90;;;;;;5015969;28;20037;-85
2023/04/28 07:38:42;;;;;;;27.35;18.67;;;11.60;99.90;;;;;;5034337;28;20037;-85
2023/04/28 07:41:07;;;;;;;22.13;15.52;;;11.70;99.90;;;;;;4979873;28;20087;-85
2023/04/28 07:43:33;;;;;;;26.75;16.73;;;11.70;99.90;;;;;;4999914;28;20029;-85
2023/04/28 07:45:59;;;;;;;23.95;16.88;;;11.80;99.90;;;;;;5006760;28;20037;-86
2023/04/28 07:48:26;;;;;;;21.92;15.77;;;11.80;99.90;;;;;;5027674;28;20001;-89
2023/04/28 07:50:52;;;;;;;23.63;15.95;;;11.80;99.90;;;;;;5044008;28;20024;-88
2023/04/28 07:53:18;;;;;;;23.02;15.73;;;11.90;99.90;;;;;;5017319;28;20030;-85
2023/04/28 07:55:46;;;;;;;23.85;17.73;;;11.90;99.90;;;;;;5004906;28;20389;-86
2023/04/28 07:58:12;;;;;;;21.15;15.68;;;11.90;99.90;;;;;;4980289;28;20050;-85
2023/04/28 08:00:38;;;;;;;22.95;16.40;;;12.00;99.90;;;;;;4979620;28;20054;-86
2023/04/28 08:03:03;;;;;;;19.77;16.17;;;12.00;99.90;;;;;;5001374;28;20022;-86
2023/04/28 08:05:30;;;;;;;21.10;17.05;;;12.00;99.90;;;;;;4977525;28;20033;-85
2023/04/28 08:07:56;;;;;;;25.08;16.90;;;12.10;99.90;;;;;;5004596;28;20037;-85
2023/04/28 08:10:22;;;;;;;23.17;17.08;;;12.10;99.90;;;;;;4987830;28;20030;-85
2023/04/28 08:12:48;;;;;;;24.83;17.75;;;12.10;99.90;;;;;;4984678;28;20035;-85
2023/04/28 08:15:13;;;;;;;22.10;17.13;;;12.10;99.90;;;;;;4979056;28;20038;-85
2023/04/28 08:17:39;;;;;;;22.15;16.25;;;12.20;99.90;;;;;;4995301;28;20038;-85
2023/04/28 08:20:06;;;;;;;21.92;15.05;;;12.20;99.90;;;;;;4963818;28;20126;-85
2023/04/28 08:22:31;;;;;;;24.30;16.60;;;12.20;99.90;;;;;;4980498;28;20023;-85
2023/04/28 08:24:57;;;;;;;27.17;18.20;;;12.20;99.90;;;;;;4964024;28;20038;-86
2023/04/28 08:27:24;;;;;;;24.17;16.17;;;12.30;99.90;;;;;;4980701;28;20121;-84
2023/04/28 08:29:50;;;;;;;25.45;17.17;;;12.30;99.90;;;;;;4984078;28;20015;-85
2023/04/28 08:32:17;;;;;;;22.30;16.75;;;12.30;99.90;;;;;;4968613;28;20101;-85
2023/04/28 08:34:42;;;;;;;25.23;16.50;;;12.40;99.90;;;;;;4984859;28;20097;-85
2023/04/28 08:37:08;;;;;;;25.42;16.48;;;12.40;99.90;;;;;;4985773;28;20027;-84
2023/04/28 08:39:34;;;;;;;23.13;15.50;;;12.40;99.90;;;;;;4986608;28;20499;-85
2023/04/28 08:42:03;;;;;;;26.05;15.95;;;12.40;99.90;;;;;;4982647;28;20027;-84
2023/04/28 08:44:38;;;;;;;26.55;16.95;;;12.50;99.90;;;;;;5000515;28;20034;-85
2023/04/28 08:47:10;;;;;;;23.23;16.83;;;12.50;99.90;;;;;;5005855;28;20032;-85
2023/04/28 08:49:37;;;;;;;23.70;15.38;;;12.60;99.90;;;;;;4987465;28;20027;-84
2023/04/28 08:52:10;;;;;;;20.77;14.60;;;12.60;99.90;;;;;;4960084;28;20030;-84
2023/04/28 08:54:37;;;;;;;22.70;15.18;;;12.60;99.90;;;;;;4984315;28;20514;-84
2023/04/28 08:57:04;;;;;;;20.88;15.60;;;12.60;99.90;;;;;;4980465;28;20027;-84
2023/04/28 08:59:30;;;;;;;21.33;15.77;;;12.70;99.90;;;;;;4998084;28;20049;-86
2023/04/28 09:01:56;;;;;;;21.98;15.40;;;12.70;99.90;;;;;;4969507;28;20401;-86
2023/04/28 09:04:22;;;;;;;21.88;14.90;;;12.70;99.90;;;;;;4983652;28;20026;-84
2023/04/28 09:06:47;;;;;;;25.92;16.00;;;12.70;99.90;;;;;;4983276;28;20059;-85
2023/04/28 09:09:29;;;;;;;25.05;15.55;;;12.70;99.90;;;;;;4982550;28;20034;-88
2023/04/28 09:11:57;;;;;;;19.10;14.18;;;12.70;99.90;;;;;;4982535;28;20033;-86
2023/04/28 09:14:23;;;;;;;20.02;14.05;;;12.80;99.90;;;;;;5023797;28;20134;-84
2023/04/28 09:16:50;;;;;;;19.13;14.15;;;12.80;99.90;;;;;;5007035;28;20037;-84
2023/04/28 09:19:16;;;;;;;18.00;13.38;;;12.80;99.90;;;;;;4989438;28;20030;-84
2023/04/28 09:21:55;;;;;;;20.73;14.93;;;12.80;99.90;;;;;;5005302;28;20026;-85
2023/04/28 09:24:31;;;;;;;23.73;15.20;;;12.80;99.90;;;;;;4986894;28;20493;-85
2023/04/28 09:27:03;;;;;;;18.63;14.13;;;12.90;99.90;;;;;;5017573;28;20033;-86
2023/04/28 09:29:29;;;;;;;21.08;15.30;;;12.90;99.90;;;;;;4999978;28;20129;-89
2023/04/28 09:32:11;;;;;;;19.95;14.40;;;12.90;99.90;;;;;;5000240;28;20022;-85
2023/04/28 09:34:48;;;;;;;21.77;14.65;;;12.90;99.90;;;;;;5000560;28;20037;-86
2023/04/28 09:37:21;;;;;;;18.92;14.93;;;13.00;99.90;;;;;;4999177;28;20028;-86
2023/04/28 09:39:51;;;;;;;19.52;14.35;;;13.00;99.90;;;;;;4983117;28;20045;-85
2023/04/28 09:42:41;;;;;;;20.83;14.98;;;13.00;99.90;;;;;;4999158;28;20477;-86
2023/04/28 09:45:08;;;;;;;19.65;14.90;;;13.10;99.90;;;;;;4999212;28;20454;-84
2023/04/28 09:47:36;;;;;;;21.33;14.75;;;13.10;99.90;;;;;;4998682;28;20022;-86
2023/04/28 09:50:05;;;;;;;17.75;13.75;;;13.10;99.90;;;;;;4998795;28;20057;-86
2023/04/28 09:52:33;;;;;;;19.10;16.05;;;13.10;99.90;;;;;;4999332;28;20135;-85
2023/04/28 09:55:03;;;;;;;19.88;15.32;;;13.10;99.90;;;;;;5015912;28;20034;-86
2023/04/28 09:57:34;;;;;;;23.35;16.50;;;13.20;99.90;;;;;;4998467;28;20037;-86
2023/04/28 10:00:05;;;;;;;24.67;16.52;;;13.20;99.90;;;;;;4999743;28;20045;-86
2023/04/28 10:02:31;;;;;;;;;;;13.20;99.90;;;;;;5000059;28;20057;-86
2023/04/28 10:04:57;;;;;;;19.98;15.57;;;13.20;99.90;;;;;;4999002;28;19909;-86
2023/04/28 10:07:23;;;;;;;25.77;16.52;;;13.20;99.90;;;;;;5000513;28;20026;-85
2023/04/28 10:09:50;;;;;;;22.17;17.23;;;13.30;99.90;;;;;;5003189;28;20473;-85
2023/04/28 10:12:24;;;;;;;20.88;17.00;;;13.30;99.90;;;;;;5004376;28;20105;-85
2023/04/28 10:14:56;;;;;;;22.73;15.48;;;13.30;99.90;;;;;;5007490;28;20540;-84
2023/04/28 10:17:24;;;;;;;23.42;17.55;;;13.30;99.90;;;;;;5011845;28;20018;-86
2023/04/28 10:19:52;;;;;;;20.75;18.52;;;13.40;99.90;;;;;;5015315;28;20038;-86
2023/04/28 10:23:07;;;;;;;21.50;18.63;;;13.40;99.90;;;;;;5028551;28;20092;-86
2023/04/28 10:25:36;;;;;;;24.10;18.67;;;13.40;99.90;;;;;;4965838;28;20030;-86
2023/04/28 10:28:07;;;;;;;24.45;18.60;;;13.50;99.90;;;;;;4997676;28;20088;-85
2023/04/28 10:30:34;;;;;;;22.60;19.58;;;13.40;99.90;;;;;;4998901;28;20081;-86
2023/04/28 10:33:14;;;;;;;25.08;18.88;;;13.50;99.90;;;;;;4997824;28;20036;-87
2023/04/28 10:35:59;;;;;;;23.55;20.73;;;13.50;99.90;;;;;;5019231;28;20069;-85
2023/04/28 10:38:25;;;;;;;24.80;20.55;;;13.60;99.90;;;;;;4998917;28;20026;-86
2023/04/28 10:40:54;;;;;;;25.83;21.52;;;13.60;99.90;;;;;;4966228;28;20034;-86
2023/04/28 10:43:31;;;;;;;26.35;18.65;;;13.60;99.90;;;;;;4999105;28;20021;-86
2023/04/28 10:46:00;;;;;;;22.60;18.23;;;13.60;99.90;;;;;;4999023;28;20117;-86
2023/04/28 10:48:25;;;;;;;23.80;20.90;;;13.60;99.90;;;;;;4998608;28;20076;-85
2023/04/28 10:51:04;;;;;;;21.58;19.23;;;13.70;99.90;;;;;;4997533;28;20393;-86
2023/04/28 10:53:44;;;;;;;22.67;19.10;;;13.70;99.90;;;;;;4997740;28;20096;-85
2023/04/28 10:56:13;;;;;;;23.13;19.70;;;13.80;99.90;;;;;;4998919;28;20026;-86
2023/04/28 10:58:45;;;;;;;22.73;18.48;;;13.80;99.90;;;;;;4982068;28;20050;-88
2023/04/28 11:01:23;;;;;;;22.88;19.75;;;13.80;99.90;;;;;;4998828;28;20040;-80
2023/04/28 11:03:58;;;;;;;20.88;18.10;;;13.90;99.90;;;;;;5017020;28;20033;-86
2023/04/28 11:06:35;;;;;;;20.85;17.48;;;13.90;99.90;;;;;;4998464;28;20022;-85
2023/04/28 11:09:13;;;;;;;21.42;18.20;;;13.90;99.90;;;;;;4982362;28;20116;-85
2023/04/28 11:12:09;;;;;;;20.52;17.67;;;13.90;99.90;;;;;;4999020;28;20176;-85
2023/04/28 11:14:39;;;;;;;18.75;16.75;;;13.90;99.90;;;;;;5019038;28;20029;-85
2023/04/28 11:17:07;;;;;;;18.95;16.95;;;14.00;99.90;;;;;;4985091;28;20034;-85
2023/04/28 11:19:38;;;;;;;19.67;17.02;;;14.00;99.90;;;;;;5002196;28;20029;-84
2023/04/28 11:22:25;;;;;;;18.63;16.73;;;14.00;99.90;;;;;;5020342;28;20034;-87
2023/04/28 11:24:59;;;;;;;18.30;16.13;;;14.10;99.90;;;;;;4998708;28;20072;-85
2023/04/28 11:27:30;;;;;;;18.45;15.50;;;14.10;99.90;;;;;;4998771;28;20026;-84
2023/04/28 11:29:55;;;;;;;16.48;14.68;;;14.10;99.90;;;;;;4999091;28;20036;-85
2023/04/28 11:32:35;;;;;;;16.83;13.70;;;14.20;99.90;;;;;;4997566;28;20388;-85
2023/04/28 11:35:03;;;;;;;18.45;15.05;;;14.20;99.90;;;;;;4996646;28;20432;-85
2023/04/28 11:37:28;;;;;;;16.42;14.68;;;14.20;99.90;;;;;;4965491;28;20034;-85
2023/04/28 11:39:57;;;;;;;18.20;15.02;;;14.20;99.90;;;;;;4980313;28;20038;-85
2023/04/28 11:42:24;;;;;;;19.73;16.30;;;14.20;99.90;;;;;;5014450;28;20089;-86
2023/04/28 11:44:51;;;;;;;19.55;16.73;;;14.20;99.90;;;;;;4980870;28;20030;-85
2023/04/28 11:47:34;;;;;;;21.30;16.25;;;14.20;99.90;;;;;;4996789;28;20033;-84
2023/04/28 11:50:00;;;;;;;21.98;18.23;;;14.20;99.90;;;;;;4996690;28;20040;-84
2023/04/28 11:52:26;;;;;;;24.95;19.17;;;14.20;99.90;;;;;;4996255;28;20076;-84
2023/04/28 11:54:56;;;;;;;26.17;20.88;;;14.30;99.90;;;;;;4963859;28;20030;-85
2023/04/28 11:57:24;;;;;;;26.55;20.77;;;14.30;99.90;;;;;;4980462;28;20100;-84
2023/04/28 11:59:50;;;;;;;29.10;21.65;;;14.40;99.90;;;;;;4996272;28;20116;-85
2023/04/28 12:02:29;;;;;;;26.85;20.15;;;14.40;99.90;;;;;;4996056;28;20022;-84
2023/04/28 12:04:55;;;;;;;22.65;19.25;;;14.50;99.90;;;;;;4996157;28;20029;-85
2023/04/28 12:07:21;;;;;;;24.23;19.38;;;14.50;99.90;;;;;;4980262;28;20116;-85
2023/04/28 12:10:17;;;;;;;24.33;19.30;;;14.50;99.90;;;;;;4979778;28;20389;-84
2023/04/28 12:12:49;;;;;;;26.02;19.77;;;14.50;99.90;;;;;;5003775;28;20026;-84
2023/04/28 12:15:14;;;;;;;25.35;19.30;;;14.50;99.90;;;;;;4979799;28;20129;-84
2023/04/28 12:17:41;;;;;;;25.00;19.15;;;14.50;99.90;;;;;;5013722;28;20429;-85
2023/04/28 12:20:29;;;;;;;21.70;17.02;;;14.50;99.90;;;;;;4995970;28;20474;-85
2023/04/28 12:22:57;;;;;;;23.45;18.17;;;14.40;99.90;;;;;;4982046;28;20049;-84
2023/04/28 12:25:22;;;;;;;22.77;16.27;;;14.40;99.90;;;;;;4979897;28;20022;-85
2023/04/28 12:28:02;;;;;;;19.52;14.90;;;14.40;99.90;;;;;;4980451;28;20037;-85
2023/04/28 12:30:32;;;;;;;18.17;15.05;;;14.40;99.90;;;;;;5020306;28;20026;-85
2023/04/28 12:32:58;;;;;;;21.42;15.65;;;14.40;99.90;;;;;;4989835;28;20022;-85
2023/04/28 12:35:25;;;;;;;22.20;15.07;;;14.40;99.90;;;;;;5006041;28;20434;-85
2023/04/28 12:37:52;;;;;;;19.98;14.77;;;14.40;99.90;;;;;;4985959;28;20036;-85